sensor_id;sensor_type;location;lat;lon;timestamp;P1;durP1;ratioP1;P2;durP2;ratioP2
23230;SDS011;11784;49.818;8.632;2023-06-10T00:01:12;2.83;;;2.10;;
23230;SDS011;11784;49.818;8.632;2023-06-10T00:03:37;4.28;;;2.45;;
23230;SDS011;11784;49.818;8.632;2023-06-10T00:06:03;4.85;;;2.47;;
23230;SDS011;11784;49.818;8.632;2023-06-10T00:08:30;3.85;;;2.67;;
23230;SDS011;11784;49.818;8.632;2023-06-10T00:10:55;4.28;;;2.92;;
23230;SDS011;11784;49.818;8.632;2023-06-10T00:13:21;6.13;;;2.13;;
23230;SDS011;11784;49.818;8.632;2023-06-10T00:15:46;6.35;;;2.78;;
23230;SDS011;11784;49.818;8.632;2023-06-10T00:18:12;3.60;;;2.50;;
23230;SDS011;11784;49.818;8.632;2023-06-10T00:20:37;7.07;;;2.90;;
23230;SDS011;11784;49.818;8.632;2023-06-10T00:23:04;4.10;;;2.45;;
23230;SDS011;11784;49.818;8.632;2023-06-10T00:25:31;5.97;;;2.67;;
23230;SDS011;11784;49.818;8.632;2023-06-10T00:27:58;4.25;;;2.70;;
23230;SDS011;11784;49.818;8.632;2023-06-10T00:30:23;6.28;;;3.03;;
23230;SDS011;11784;49.818;8.632;2023-06-10T00:32:48;4.72;;;2.90;;
23230;SDS011;11784;49.818;8.632;2023-06-10T00:35:14;3.53;;;2.35;;
23230;SDS011;11784;49.818;8.632;2023-06-10T00:37:40;3.58;;;2.35;;
23230;SDS011;11784;49.818;8.632;2023-06-10T00:40:06;4.35;;;2.92;;
23230;SDS011;11784;49.818;8.632;2023-06-10T00:42:34;4.18;;;2.33;;
23230;SDS011;11784;49.818;8.632;2023-06-10T00:44:59;3.85;;;2.42;;
23230;SDS011;11784;49.818;8.632;2023-06-10T00:47:25;4.22;;;2.63;;
23230;SDS011;11784;49.818;8.632;2023-06-10T00:49:52;3.70;;;2.30;;
23230;SDS011;11784;49.818;8.632;2023-06-10T00:52:18;3.08;;;2.03;;
23230;SDS011;11784;49.818;8.632;2023-06-10T00:54:45;6.13;;;2.78;;
23230;SDS011;11784;49.818;8.632;2023-06-10T00:57:11;4.47;;;2.50;;
23230;SDS011;11784;49.818;8.632;2023-06-10T00:59:39;4.00;;;2.60;;
23230;SDS011;11784;49.818;8.632;2023-06-10T01:02:05;3.75;;;2.08;;
23230;SDS011;11784;49.818;8.632;2023-06-10T01:04:32;4.00;;;2.63;;
23230;SDS011;11784;49.818;8.632;2023-06-10T01:09:38;4.28;;;2.92;;
23230;SDS011;11784;49.818;8.632;2023-06-10T01:12:30;3.83;;;2.20;;
23230;SDS011;11784;49.818;8.632;2023-06-10T01:15:01;4.82;;;2.78;;
23230;SDS011;11784;49.818;8.632;2023-06-10T01:17:28;3.88;;;2.38;;
23230;SDS011;11784;49.818;8.632;2023-06-10T01:19:56;4.57;;;2.55;;
23230;SDS011;11784;49.818;8.632;2023-06-10T01:22:26;10.43;;;3.13;;
23230;SDS011;11784;49.818;8.632;2023-06-10T01:24:57;4.00;;;2.00;;
23230;SDS011;11784;49.818;8.632;2023-06-10T01:27:24;3.53;;;2.22;;
23230;SDS011;11784;49.818;8.632;2023-06-10T01:30:04;3.42;;;1.95;;
23230;SDS011;11784;49.818;8.632;2023-06-10T01:32:40;4.32;;;2.45;;
23230;SDS011;11784;49.818;8.632;2023-06-10T01:35:10;4.00;;;2.45;;
23230;SDS011;11784;49.818;8.632;2023-06-10T01:37:37;4.50;;;2.72;;
23230;SDS011;11784;49.818;8.632;2023-06-10T01:40:05;3.50;;;2.38;;
23230;SDS011;11784;49.818;8.632;2023-06-10T01:42:32;4.97;;;2.40;;
23230;SDS011;11784;49.818;8.632;2023-06-10T01:44:58;4.97;;;2.90;;
23230;SDS011;11784;49.818;8.632;2023-06-10T01:47:24;5.40;;;3.25;;
23230;SDS011;11784;49.818;8.632;2023-06-10T01:49:49;4.93;;;2.72;;
23230;SDS011;11784;49.818;8.632;2023-06-10T01:52:15;5.00;;;2.80;;
23230;SDS011;11784;49.818;8.632;2023-06-10T01:54:41;3.03;;;2.22;;
23230;SDS011;11784;49.818;8.632;2023-06-10T01:57:06;6.30;;;3.65;;
23230;SDS011;11784;49.818;8.632;2023-06-10T01:59:32;4.90;;;3.00;;
23230;SDS011;11784;49.818;8.632;2023-06-10T02:01:58;3.63;;;2.55;;
23230;SDS011;11784;49.818;8.632;2023-06-10T02:04:23;4.43;;;2.80;;
23230;SDS011;11784;49.818;8.632;2023-06-10T02:06:49;3.70;;;2.40;;
23230;SDS011;11784;49.818;8.632;2023-06-10T02:09:15;4.38;;;2.67;;
23230;SDS011;11784;49.818;8.632;2023-06-10T02:11:41;4.40;;;2.83;;
23230;SDS011;11784;49.818;8.632;2023-06-10T02:14:06;5.93;;;2.85;;
23230;SDS011;11784;49.818;8.632;2023-06-10T02:16:32;6.72;;;2.63;;
23230;SDS011;11784;49.818;8.632;2023-06-10T02:18:57;3.97;;;2.60;;
23230;SDS011;11784;49.818;8.632;2023-06-10T02:21:23;6.93;;;3.40;;
23230;SDS011;11784;49.818;8.632;2023-06-10T02:23:49;4.80;;;2.63;;
23230;SDS011;11784;49.818;8.632;2023-06-10T02:26:14;3.83;;;2.30;;
23230;SDS011;11784;49.818;8.632;2023-06-10T02:28:43;4.75;;;3.08;;
23230;SDS011;11784;49.818;8.632;2023-06-10T02:31:09;6.10;;;3.00;;
23230;SDS011;11784;49.818;8.632;2023-06-10T02:33:35;5.20;;;2.92;;
23230;SDS011;11784;49.818;8.632;2023-06-10T02:36:05;4.45;;;2.95;;
23230;SDS011;11784;49.818;8.632;2023-06-10T02:38:31;3.20;;;2.60;;
23230;SDS011;11784;49.818;8.632;2023-06-10T02:40:56;4.95;;;2.90;;
23230;SDS011;11784;49.818;8.632;2023-06-10T02:43:21;3.97;;;2.60;;
23230;SDS011;11784;49.818;8.632;2023-06-10T02:45:47;4.72;;;2.72;;
23230;SDS011;11784;49.818;8.632;2023-06-10T02:48:12;11.18;;;3.50;;
23230;SDS011;11784;49.818;8.632;2023-06-10T02:50:38;4.25;;;2.88;;
23230;SDS011;11784;49.818;8.632;2023-06-10T02:53:05;4.65;;;2.88;;
23230;SDS011;11784;49.818;8.632;2023-06-10T02:55:30;3.65;;;2.72;;
23230;SDS011;11784;49.818;8.632;2023-06-10T02:57:57;4.68;;;2.60;;
23230;SDS011;11784;49.818;8.632;2023-06-10T03:00:23;4.40;;;2.42;;
23230;SDS011;11784;49.818;8.632;2023-06-10T03:02:48;3.13;;;2.20;;
23230;SDS011;11784;49.818;8.632;2023-06-10T03:05:14;4.13;;;2.63;;
23230;SDS011;11784;49.818;8.632;2023-06-10T03:07:39;4.78;;;2.47;;
23230;SDS011;11784;49.818;8.632;2023-06-10T03:10:05;4.65;;;2.60;;
23230;SDS011;11784;49.818;8.632;2023-06-10T03:12:31;4.18;;;2.70;;
23230;SDS011;11784;49.818;8.632;2023-06-10T03:14:57;6.82;;;2.83;;
23230;SDS011;11784;49.818;8.632;2023-06-10T03:17:23;6.03;;;2.85;;
23230;SDS011;11784;49.818;8.632;2023-06-10T03:19:48;4.50;;;2.22;;
23230;SDS011;11784;49.818;8.632;2023-06-10T03:22:14;6.00;;;2.65;;
23230;SDS011;11784;49.818;8.632;2023-06-10T03:24:41;4.57;;;2.40;;
23230;SDS011;11784;49.818;8.632;2023-06-10T03:27:08;4.78;;;2.97;;
23230;SDS011;11784;49.818;8.632;2023-06-10T03:29:35;5.15;;;2.60;;
23230;SDS011;11784;49.818;8.632;2023-06-10T03:32:01;6.43;;;2.60;;
23230;SDS011;11784;49.818;8.632;2023-06-10T03:34:27;7.65;;;2.55;;
23230;SDS011;11784;49.818;8.632;2023-06-10T03:36:53;5.45;;;2.95;;
23230;SDS011;11784;49.818;8.632;2023-06-10T03:39:18;3.08;;;2.22;;
23230;SDS011;11784;49.818;8.632;2023-06-10T03:41:44;5.70;;;2.58;;
23230;SDS011;11784;49.818;8.632;2023-06-10T03:44:10;5.85;;;3.00;;
23230;SDS011;11784;49.818;8.632;2023-06-10T03:46:35;4.35;;;2.72;;
23230;SDS011;11784;49.818;8.632;2023-06-10T03:49:01;4.22;;;2.70;;
23230;SDS011;11784;49.818;8.632;2023-06-10T03:51:26;5.22;;;2.80;;
23230;SDS011;11784;49.818;8.632;2023-06-10T03:53:52;3.28;;;2.25;;
23230;SDS011;11784;49.818;8.632;2023-06-10T03:56:18;5.50;;;2.60;;
23230;SDS011;11784;49.818;8.632;2023-06-10T03:58:43;4.10;;;3.03;;
23230;SDS011;11784;49.818;8.632;2023-06-10T04:01:09;6.57;;;2.85;;
23230;SDS011;11784;49.818;8.632;2023-06-10T04:03:35;4.30;;;2.47;;
23230;SDS011;11784;49.818;8.632;2023-06-10T04:06:01;4.55;;;3.08;;
23230;SDS011;11784;49.818;8.632;2023-06-10T04:08:27;3.83;;;2.55;;
23230;SDS011;11784;49.818;8.632;2023-06-10T04:10:53;7.20;;;2.83;;
23230;SDS011;11784;49.818;8.632;2023-06-10T04:13:18;5.15;;;3.38;;
23230;SDS011;11784;49.818;8.632;2023-06-10T04:15:44;6.85;;;2.63;;
23230;SDS011;11784;49.818;8.632;2023-06-10T04:18:10;6.30;;;2.83;;
23230;SDS011;11784;49.818;8.632;2023-06-10T04:20:35;5.45;;;2.97;;
23230;SDS011;11784;49.818;8.632;2023-06-10T04:23:01;3.67;;;2.55;;
23230;SDS011;11784;49.818;8.632;2023-06-10T04:25:26;5.30;;;3.00;;
23230;SDS011;11784;49.818;8.632;2023-06-10T04:27:53;4.50;;;2.60;;
23230;SDS011;11784;49.818;8.632;2023-06-10T04:30:19;4.55;;;2.92;;
23230;SDS011;11784;49.818;8.632;2023-06-10T04:32:45;4.15;;;2.95;;
23230;SDS011;11784;49.818;8.632;2023-06-10T04:35:12;3.80;;;2.60;;
23230;SDS011;11784;49.818;8.632;2023-06-10T04:37:38;5.35;;;2.67;;
23230;SDS011;11784;49.818;8.632;2023-06-10T04:40:04;5.90;;;3.17;;
23230;SDS011;11784;49.818;8.632;2023-06-10T04:42:30;4.10;;;2.67;;
23230;SDS011;11784;49.818;8.632;2023-06-10T04:44:56;3.90;;;2.80;;
23230;SDS011;11784;49.818;8.632;2023-06-10T04:47:22;5.13;;;2.90;;
23230;SDS011;11784;49.818;8.632;2023-06-10T04:49:48;5.82;;;2.65;;
23230;SDS011;11784;49.818;8.632;2023-06-10T04:52:13;4.07;;;2.33;;
23230;SDS011;11784;49.818;8.632;2023-06-10T04:54:39;4.53;;;2.95;;
23230;SDS011;11784;49.818;8.632;2023-06-10T04:57:05;3.75;;;2.50;;
23230;SDS011;11784;49.818;8.632;2023-06-10T04:59:32;4.43;;;2.63;;
23230;SDS011;11784;49.818;8.632;2023-06-10T05:01:58;4.30;;;3.05;;
23230;SDS011;11784;49.818;8.632;2023-06-10T05:04:24;3.08;;;2.25;;
23230;SDS011;11784;49.818;8.632;2023-06-10T05:06:50;6.05;;;2.67;;
23230;SDS011;11784;49.818;8.632;2023-06-10T05:09:15;4.75;;;2.60;;
23230;SDS011;11784;49.818;8.632;2023-06-10T05:11:41;3.40;;;2.60;;
23230;SDS011;11784;49.818;8.632;2023-06-10T05:14:07;5.15;;;2.58;;
23230;SDS011;11784;49.818;8.632;2023-06-10T05:16:32;4.97;;;2.70;;
23230;SDS011;11784;49.818;8.632;2023-06-10T05:18:58;4.43;;;2.53;;
23230;SDS011;11784;49.818;8.632;2023-06-10T05:21:23;4.57;;;2.47;;
23230;SDS011;11784;49.818;8.632;2023-06-10T05:23:49;3.78;;;2.50;;
23230;SDS011;11784;49.818;8.632;2023-06-10T05:26:15;5.28;;;2.67;;
23230;SDS011;11784;49.818;8.632;2023-06-10T05:28:40;3.08;;;2.28;;
23230;SDS011;11784;49.818;8.632;2023-06-10T05:31:06;3.75;;;1.95;;
23230;SDS011;11784;49.818;8.632;2023-06-10T05:33:32;4.97;;;3.00;;
23230;SDS011;11784;49.818;8.632;2023-06-10T05:35:57;5.45;;;2.40;;
23230;SDS011;11784;49.818;8.632;2023-06-10T05:38:23;3.92;;;2.20;;
23230;SDS011;11784;49.818;8.632;2023-06-10T05:40:48;3.60;;;2.38;;
23230;SDS011;11784;49.818;8.632;2023-06-10T05:43:14;2.45;;;1.80;;
23230;SDS011;11784;49.818;8.632;2023-06-10T05:45:41;4.05;;;2.70;;
23230;SDS011;11784;49.818;8.632;2023-06-10T05:48:07;5.65;;;2.03;;
23230;SDS011;11784;49.818;8.632;2023-06-10T05:50:33;2.83;;;2.30;;
23230;SDS011;11784;49.818;8.632;2023-06-10T05:53:03;3.33;;;2.20;;
23230;SDS011;11784;49.818;8.632;2023-06-10T05:55:28;5.05;;;3.00;;
23230;SDS011;11784;49.818;8.632;2023-06-10T05:58:00;6.28;;;2.25;;
23230;SDS011;11784;49.818;8.632;2023-06-10T06:00:26;3.60;;;2.33;;
23230;SDS011;11784;49.818;8.632;2023-06-10T06:02:52;3.40;;;2.42;;
23230;SDS011;11784;49.818;8.632;2023-06-10T06:05:19;6.00;;;2.67;;
23230;SDS011;11784;49.818;8.632;2023-06-10T06:07:44;5.85;;;2.75;;
23230;SDS011;11784;49.818;8.632;2023-06-10T06:10:10;4.22;;;2.67;;
23230;SDS011;11784;49.818;8.632;2023-06-10T06:12:35;5.32;;;2.78;;
23230;SDS011;11784;49.818;8.632;2023-06-10T06:15:01;5.35;;;2.88;;
23230;SDS011;11784;49.818;8.632;2023-06-10T06:17:26;9.95;;;2.28;;
23230;SDS011;11784;49.818;8.632;2023-06-10T06:19:52;3.90;;;2.35;;
23230;SDS011;11784;49.818;8.632;2023-06-10T06:22:18;3.83;;;2.33;;
23230;SDS011;11784;49.818;8.632;2023-06-10T06:24:46;2.78;;;1.92;;
23230;SDS011;11784;49.818;8.632;2023-06-10T06:27:12;3.88;;;2.17;;
23230;SDS011;11784;49.818;8.632;2023-06-10T06:29:37;7.53;;;2.20;;
23230;SDS011;11784;49.818;8.632;2023-06-10T06:32:03;4.43;;;2.65;;
23230;SDS011;11784;49.818;8.632;2023-06-10T06:34:28;4.35;;;2.75;;
23230;SDS011;11784;49.818;8.632;2023-06-10T06:36:54;6.05;;;2.95;;
23230;SDS011;11784;49.818;8.632;2023-06-10T06:39:20;3.55;;;2.20;;
23230;SDS011;11784;49.818;8.632;2023-06-10T06:41:45;4.93;;;2.40;;
23230;SDS011;11784;49.818;8.632;2023-06-10T06:44:10;5.05;;;2.70;;
23230;SDS011;11784;49.818;8.632;2023-06-10T06:46:36;3.50;;;2.42;;
23230;SDS011;11784;49.818;8.632;2023-06-10T06:49:01;5.05;;;2.28;;
23230;SDS011;11784;49.818;8.632;2023-06-10T06:51:27;3.63;;;2.47;;
23230;SDS011;11784;49.818;8.632;2023-06-10T06:53:52;3.45;;;2.08;;
23230;SDS011;11784;49.818;8.632;2023-06-10T06:56:21;4.35;;;2.55;;
23230;SDS011;11784;49.818;8.632;2023-06-10T06:58:47;4.70;;;2.72;;
23230;SDS011;11784;49.818;8.632;2023-06-10T07:01:13;3.75;;;2.35;;
23230;SDS011;11784;49.818;8.632;2023-06-10T07:03:38;4.13;;;2.15;;
23230;SDS011;11784;49.818;8.632;2023-06-10T07:06:04;4.03;;;2.20;;
23230;SDS011;11784;49.818;8.632;2023-06-10T07:08:30;5.65;;;1.95;;
23230;SDS011;11784;49.818;8.632;2023-06-10T07:10:55;6.18;;;3.17;;
23230;SDS011;11784;49.818;8.632;2023-06-10T07:13:21;8.88;;;2.95;;
23230;SDS011;11784;49.818;8.632;2023-06-10T07:15:49;4.90;;;2.83;;
23230;SDS011;11784;49.818;8.632;2023-06-10T07:18:15;3.75;;;2.50;;
23230;SDS011;11784;49.818;8.632;2023-06-10T07:20:42;3.78;;;2.53;;
23230;SDS011;11784;49.818;8.632;2023-06-10T07:23:07;4.07;;;2.67;;
23230;SDS011;11784;49.818;8.632;2023-06-10T07:25:35;4.47;;;2.38;;
23230;SDS011;11784;49.818;8.632;2023-06-10T07:28:01;4.07;;;2.33;;
23230;SDS011;11784;49.818;8.632;2023-06-10T07:30:27;6.38;;;2.78;;
23230;SDS011;11784;49.818;8.632;2023-06-10T07:32:53;3.65;;;2.13;;
23230;SDS011;11784;49.818;8.632;2023-06-10T07:35:18;3.42;;;2.05;;
23230;SDS011;11784;49.818;8.632;2023-06-10T07:37:44;3.47;;;2.17;;
23230;SDS011;11784;49.818;8.632;2023-06-10T07:40:10;3.13;;;2.50;;
23230;SDS011;11784;49.818;8.632;2023-06-10T07:42:38;3.20;;;2.40;;
23230;SDS011;11784;49.818;8.632;2023-06-10T07:45:04;3.28;;;2.03;;
23230;SDS011;11784;49.818;8.632;2023-06-10T07:47:32;7.13;;;2.33;;
23230;SDS011;11784;49.818;8.632;2023-06-10T07:49:58;4.95;;;2.58;;
23230;SDS011;11784;49.818;8.632;2023-06-10T07:52:24;4.85;;;2.53;;
23230;SDS011;11784;49.818;8.632;2023-06-10T07:54:50;3.50;;;2.35;;
23230;SDS011;11784;49.818;8.632;2023-06-10T07:57:16;6.65;;;2.58;;
23230;SDS011;11784;49.818;8.632;2023-06-10T07:59:42;4.47;;;2.53;;
23230;SDS011;11784;49.818;8.632;2023-06-10T08:02:09;4.35;;;2.45;;
23230;SDS011;11784;49.818;8.632;2023-06-10T08:04:35;3.80;;;2.70;;
23230;SDS011;11784;49.818;8.632;2023-06-10T08:07:00;4.20;;;2.53;;
23230;SDS011;11784;49.818;8.632;2023-06-10T08:09:27;5.07;;;3.10;;
23230;SDS011;11784;49.818;8.632;2023-06-10T08:11:52;3.72;;;2.20;;
23230;SDS011;11784;49.818;8.632;2023-06-10T08:14:18;3.78;;;2.20;;
23230;SDS011;11784;49.818;8.632;2023-06-10T08:16:43;3.75;;;2.70;;
23230;SDS011;11784;49.818;8.632;2023-06-10T08:19:09;4.65;;;2.30;;
23230;SDS011;11784;49.818;8.632;2023-06-10T08:21:35;2.88;;;1.83;;
23230;SDS011;11784;49.818;8.632;2023-06-10T08:24:05;2.90;;;2.20;;
23230;SDS011;11784;49.818;8.632;2023-06-10T08:26:31;6.93;;;3.33;;
23230;SDS011;11784;49.818;8.632;2023-06-10T08:28:56;4.03;;;2.25;;
23230;SDS011;11784;49.818;8.632;2023-06-10T08:31:22;4.13;;;2.65;;
23230;SDS011;11784;49.818;8.632;2023-06-10T08:33:47;2.97;;;2.30;;
23230;SDS011;11784;49.818;8.632;2023-06-10T08:36:13;3.25;;;1.83;;
23230;SDS011;11784;49.818;8.632;2023-06-10T08:38:39;6.45;;;2.58;;
23230;SDS011;11784;49.818;8.632;2023-06-10T08:41:05;3.20;;;2.10;;
23230;SDS011;11784;49.818;8.632;2023-06-10T08:43:42;4.35;;;2.42;;
23230;SDS011;11784;49.818;8.632;2023-06-10T08:46:11;4.97;;;2.38;;
23230;SDS011;11784;49.818;8.632;2023-06-10T08:48:41;5.60;;;2.85;;
23230;SDS011;11784;49.818;8.632;2023-06-10T08:51:09;3.05;;;1.95;;
23230;SDS011;11784;49.818;8.632;2023-06-10T08:53:36;3.85;;;2.67;;
23230;SDS011;11784;49.818;8.632;2023-06-10T08:56:03;3.67;;;2.03;;
23230;SDS011;11784;49.818;8.632;2023-06-10T08:58:30;4.43;;;2.72;;
23230;SDS011;11784;49.818;8.632;2023-06-10T09:00:58;4.28;;;2.80;;
23230;SDS011;11784;49.818;8.632;2023-06-10T09:03:24;3.53;;;2.50;;
23230;SDS011;11784;49.818;8.632;2023-06-10T09:05:50;4.80;;;2.83;;
23230;SDS011;11784;49.818;8.632;2023-06-10T09:08:16;4.05;;;2.30;;
23230;SDS011;11784;49.818;8.632;2023-06-10T09:10:42;4.00;;;2.83;;
23230;SDS011;11784;49.818;8.632;2023-06-10T09:13:07;4.25;;;2.70;;
23230;SDS011;11784;49.818;8.632;2023-06-10T09:15:33;6.07;;;2.47;;
23230;SDS011;11784;49.818;8.632;2023-06-10T09:17:59;3.35;;;2.33;;
23230;SDS011;11784;49.818;8.632;2023-06-10T09:20:24;3.33;;;2.30;;
23230;SDS011;11784;49.818;8.632;2023-06-10T09:22:50;4.03;;;2.45;;
23230;SDS011;11784;49.818;8.632;2023-06-10T09:25:16;3.60;;;2.40;;
23230;SDS011;11784;49.818;8.632;2023-06-10T09:30:36;3.65;;;2.67;;
23230;SDS011;11784;49.818;8.632;2023-06-10T09:33:01;4.43;;;2.75;;
23230;SDS011;11784;49.818;8.632;2023-06-10T09:35:34;3.60;;;2.83;;
23230;SDS011;11784;49.818;8.632;2023-06-10T09:37:59;3.42;;;2.50;;
23230;SDS011;11784;49.818;8.632;2023-06-10T09:40:25;4.93;;;2.85;;
23230;SDS011;11784;49.818;8.632;2023-06-10T09:42:53;4.88;;;2.40;;
23230;SDS011;11784;49.818;8.632;2023-06-10T09:45:25;4.75;;;2.42;;
23230;SDS011;11784;49.818;8.632;2023-06-10T09:47:56;3.75;;;2.35;;
23230;SDS011;11784;49.818;8.632;2023-06-10T09:50:22;5.13;;;2.78;;
23230;SDS011;11784;49.818;8.632;2023-06-10T09:52:48;4.32;;;2.47;;
23230;SDS011;11784;49.818;8.632;2023-06-10T09:55:15;3.50;;;2.22;;
23230;SDS011;11784;49.818;8.632;2023-06-10T09:57:41;7.72;;;3.20;;
23230;SDS011;11784;49.818;8.632;2023-06-10T10:00:10;3.33;;;2.55;;
23230;SDS011;11784;49.818;8.632;2023-06-10T10:02:43;3.45;;;2.58;;
23230;SDS011;11784;49.818;8.632;2023-06-10T10:05:16;6.78;;;2.40;;
23230;SDS011;11784;49.818;8.632;2023-06-10T10:07:44;3.78;;;2.30;;
23230;SDS011;11784;49.818;8.632;2023-06-10T10:10:10;4.32;;;2.38;;
23230;SDS011;11784;49.818;8.632;2023-06-10T10:12:37;4.35;;;2.38;;
23230;SDS011;11784;49.818;8.632;2023-06-10T10:15:03;3.45;;;2.40;;
23230;SDS011;11784;49.818;8.632;2023-06-10T10:17:34;2.95;;;2.30;;
23230;SDS011;11784;49.818;8.632;2023-06-10T10:20:05;4.10;;;2.35;;
23230;SDS011;11784;49.818;8.632;2023-06-10T10:22:38;3.83;;;2.33;;
23230;SDS011;11784;49.818;8.632;2023-06-10T10:25:05;2.80;;;1.88;;
23230;SDS011;11784;49.818;8.632;2023-06-10T10:27:48;3.78;;;1.92;;
23230;SDS011;11784;49.818;8.632;2023-06-10T10:30:20;4.03;;;2.50;;
23230;SDS011;11784;49.818;8.632;2023-06-10T10:33:00;7.35;;;2.28;;
23230;SDS011;11784;49.818;8.632;2023-06-10T10:35:30;5.20;;;2.92;;
23230;SDS011;11784;49.818;8.632;2023-06-10T10:37:57;3.85;;;2.20;;
23230;SDS011;11784;49.818;8.632;2023-06-10T10:40:24;3.10;;;2.08;;
23230;SDS011;11784;49.818;8.632;2023-06-10T10:42:51;3.78;;;1.75;;
23230;SDS011;11784;49.818;8.632;2023-06-10T10:45:18;3.20;;;2.20;;
23230;SDS011;11784;49.818;8.632;2023-06-10T10:47:45;3.42;;;1.85;;
23230;SDS011;11784;49.818;8.632;2023-06-10T10:50:15;2.70;;;1.70;;
23230;SDS011;11784;49.818;8.632;2023-06-10T10:52:52;3.28;;;2.13;;
23230;SDS011;11784;49.818;8.632;2023-06-10T10:55:25;1.65;;;1.42;;
23230;SDS011;11784;49.818;8.632;2023-06-10T11:00:37;2.65;;;1.50;;
23230;SDS011;11784;49.818;8.632;2023-06-10T11:03:12;4.47;;;1.52;;
23230;SDS011;11784;49.818;8.632;2023-06-10T11:05:40;3.63;;;1.85;;
23230;SDS011;11784;49.818;8.632;2023-06-10T11:08:09;2.38;;;1.50;;
23230;SDS011;11784;49.818;8.632;2023-06-10T11:10:39;3.72;;;1.88;;
23230;SDS011;11784;49.818;8.632;2023-06-10T11:13:09;3.05;;;1.98;;
23230;SDS011;11784;49.818;8.632;2023-06-10T11:15:39;3.83;;;1.63;;
23230;SDS011;11784;49.818;8.632;2023-06-10T11:18:28;3.50;;;1.42;;
23230;SDS011;11784;49.818;8.632;2023-06-10T11:20:59;1.77;;;1.40;;
23230;SDS011;11784;49.818;8.632;2023-06-10T11:23:30;3.38;;;1.77;;
23230;SDS011;11784;49.818;8.632;2023-06-10T11:31:24;2.40;;;1.50;;
23230;SDS011;11784;49.818;8.632;2023-06-10T11:33:54;2.13;;;1.73;;
23230;SDS011;11784;49.818;8.632;2023-06-10T11:36:31;2.97;;;1.42;;
23230;SDS011;11784;49.818;8.632;2023-06-10T11:39:02;1.95;;;1.20;;
23230;SDS011;11784;49.818;8.632;2023-06-10T11:41:29;2.47;;;1.60;;
23230;SDS011;11784;49.818;8.632;2023-06-10T11:43:57;5.07;;;1.65;;
23230;SDS011;11784;49.818;8.632;2023-06-10T11:46:28;2.72;;;1.33;;
23230;SDS011;11784;49.818;8.632;2023-06-10T11:48:54;2.33;;;1.40;;
23230;SDS011;11784;49.818;8.632;2023-06-10T11:51:21;3.45;;;1.83;;
23230;SDS011;11784;49.818;8.632;2023-06-10T11:53:47;3.13;;;1.30;;
23230;SDS011;11784;49.818;8.632;2023-06-10T11:56:24;3.30;;;1.80;;
23230;SDS011;11784;49.818;8.632;2023-06-10T11:58:58;2.55;;;1.25;;
23230;SDS011;11784;49.818;8.632;2023-06-10T12:01:25;2.42;;;1.52;;
23230;SDS011;11784;49.818;8.632;2023-06-10T12:06:51;2.20;;;1.15;;
23230;SDS011;11784;49.818;8.632;2023-06-10T12:09:18;2.20;;;1.40;;
23230;SDS011;11784;49.818;8.632;2023-06-10T12:11:50;2.08;;;1.35;;
23230;SDS011;11784;49.818;8.632;2023-06-10T12:17:19;1.90;;;1.15;;
23230;SDS011;11784;49.818;8.632;2023-06-10T12:19:47;2.03;;;1.27;;
23230;SDS011;11784;49.818;8.632;2023-06-10T12:22:13;2.08;;;1.40;;
23230;SDS011;11784;49.818;8.632;2023-06-10T12:24:45;3.45;;;1.50;;
23230;SDS011;11784;49.818;8.632;2023-06-10T12:27:22;3.17;;;1.75;;
23230;SDS011;11784;49.818;8.632;2023-06-10T12:29:51;2.70;;;1.30;;
23230;SDS011;11784;49.818;8.632;2023-06-10T12:34:45;6.18;;;1.80;;
23230;SDS011;11784;49.818;8.632;2023-06-10T12:37:12;2.35;;;1.42;;
23230;SDS011;11784;49.818;8.632;2023-06-10T12:39:40;2.97;;;1.52;;
23230;SDS011;11784;49.818;8.632;2023-06-10T12:42:08;5.10;;;1.92;;
23230;SDS011;11784;49.818;8.632;2023-06-10T12:44:43;2.25;;;1.70;;
23230;SDS011;11784;49.818;8.632;2023-06-10T12:47:09;3.22;;;1.58;;
23230;SDS011;11784;49.818;8.632;2023-06-10T12:49:37;2.17;;;1.70;;
23230;SDS011;11784;49.818;8.632;2023-06-10T12:52:03;2.70;;;1.50;;
23230;SDS011;11784;49.818;8.632;2023-06-10T12:54:29;4.05;;;1.50;;
23230;SDS011;11784;49.818;8.632;2023-06-10T12:56:55;2.58;;;1.70;;
23230;SDS011;11784;49.818;8.632;2023-06-10T12:59:21;5.25;;;1.50;;
23230;SDS011;11784;49.818;8.632;2023-06-10T13:01:50;2.65;;;1.50;;
23230;SDS011;11784;49.818;8.632;2023-06-10T13:04:16;6.25;;;1.60;;
23230;SDS011;11784;49.818;8.632;2023-06-10T13:06:43;2.95;;;1.80;;
23230;SDS011;11784;49.818;8.632;2023-06-10T13:09:09;2.72;;;1.50;;
23230;SDS011;11784;49.818;8.632;2023-06-10T13:11:34;2.45;;;1.50;;
23230;SDS011;11784;49.818;8.632;2023-06-10T13:14:01;2.15;;;1.35;;
23230;SDS011;11784;49.818;8.632;2023-06-10T13:16:27;3.20;;;2.05;;
23230;SDS011;11784;49.818;8.632;2023-06-10T13:18:53;3.78;;;1.50;;
23230;SDS011;11784;49.818;8.632;2023-06-10T13:21:19;2.53;;;1.58;;
23230;SDS011;11784;49.818;8.632;2023-06-10T13:23:45;2.58;;;1.50;;
23230;SDS011;11784;49.818;8.632;2023-06-10T13:26:12;3.65;;;1.40;;
23230;SDS011;11784;49.818;8.632;2023-06-10T13:28:38;2.10;;;1.40;;
23230;SDS011;11784;49.818;8.632;2023-06-10T13:31:04;2.00;;;1.35;;
23230;SDS011;11784;49.818;8.632;2023-06-10T13:33:30;3.67;;;1.70;;
23230;SDS011;11784;49.818;8.632;2023-06-10T13:35:55;4.57;;;1.67;;
23230;SDS011;11784;49.818;8.632;2023-06-10T13:38:21;3.42;;;1.67;;
23230;SDS011;11784;49.818;8.632;2023-06-10T13:40:46;4.57;;;1.40;;
23230;SDS011;11784;49.818;8.632;2023-06-10T13:43:11;3.80;;;1.58;;
23230;SDS011;11784;49.818;8.632;2023-06-10T13:45:38;2.67;;;1.80;;
23230;SDS011;11784;49.818;8.632;2023-06-10T13:48:04;2.47;;;1.60;;
23230;SDS011;11784;49.818;8.632;2023-06-10T13:50:30;4.18;;;2.13;;
23230;SDS011;11784;49.818;8.632;2023-06-10T13:52:56;3.20;;;2.10;;
23230;SDS011;11784;49.818;8.632;2023-06-10T13:55:22;4.13;;;1.80;;
23230;SDS011;11784;49.818;8.632;2023-06-10T13:57:49;3.33;;;1.80;;
23230;SDS011;11784;49.818;8.632;2023-06-10T14:00:15;3.40;;;1.80;;
23230;SDS011;11784;49.818;8.632;2023-06-10T14:02:41;3.70;;;1.95;;
23230;SDS011;11784;49.818;8.632;2023-06-10T14:05:07;4.80;;;1.58;;
23230;SDS011;11784;49.818;8.632;2023-06-10T14:07:33;2.22;;;1.55;;
23230;SDS011;11784;49.818;8.632;2023-06-10T14:09:59;2.25;;;1.45;;
23230;SDS011;11784;49.818;8.632;2023-06-10T14:12:24;2.53;;;1.60;;
23230;SDS011;11784;49.818;8.632;2023-06-10T14:14:50;3.00;;;1.90;;
23230;SDS011;11784;49.818;8.632;2023-06-10T14:17:16;3.33;;;1.95;;
23230;SDS011;11784;49.818;8.632;2023-06-10T14:19:41;2.58;;;1.70;;
23230;SDS011;11784;49.818;8.632;2023-06-10T14:22:07;3.40;;;1.70;;
23230;SDS011;11784;49.818;8.632;2023-06-10T14:24:33;2.42;;;1.67;;
23230;SDS011;11784;49.818;8.632;2023-06-10T14:27:00;3.22;;;1.98;;
23230;SDS011;11784;49.818;8.632;2023-06-10T14:29:25;1.75;;;1.40;;
23230;SDS011;11784;49.818;8.632;2023-06-10T14:31:53;1.80;;;1.58;;
23230;SDS011;11784;49.818;8.632;2023-06-10T14:34:19;2.42;;;1.80;;
23230;SDS011;11784;49.818;8.632;2023-06-10T14:36:45;4.53;;;2.35;;
23230;SDS011;11784;49.818;8.632;2023-06-10T14:39:11;3.63;;;1.95;;
23230;SDS011;11784;49.818;8.632;2023-06-10T14:41:36;2.78;;;1.50;;
23230;SDS011;11784;49.818;8.632;2023-06-10T14:44:02;3.20;;;1.80;;
23230;SDS011;11784;49.818;8.632;2023-06-10T14:46:28;2.72;;;1.80;;
23230;SDS011;11784;49.818;8.632;2023-06-10T14:48:53;3.08;;;1.58;;
23230;SDS011;11784;49.818;8.632;2023-06-10T14:51:19;2.53;;;1.80;;
23230;SDS011;11784;49.818;8.632;2023-06-10T14:53:45;2.15;;;1.50;;
23230;SDS011;11784;49.818;8.632;2023-06-10T14:56:11;2.97;;;1.80;;
23230;SDS011;11784;49.818;8.632;2023-06-10T14:58:37;2.33;;;1.83;;
23230;SDS011;11784;49.818;8.632;2023-06-10T15:01:03;2.22;;;1.40;;
23230;SDS011;11784;49.818;8.632;2023-06-10T15:03:29;3.03;;;1.75;;
23230;SDS011;11784;49.818;8.632;2023-06-10T15:05:54;2.30;;;1.58;;
23230;SDS011;11784;49.818;8.632;2023-06-10T15:08:20;2.35;;;1.70;;